sensor_id;sensor_type;location;lat;lon;timestamp;P1;durP1;ratioP1;P2;durP2;ratioP2
67100;SDS011;54019;61.746;16.106;2022-09-28T00:00:21;1.80;;;0.80;;
67100;SDS011;54019;61.746;16.106;2022-09-28T00:02:47;1.67;;;0.70;;
67100;SDS011;54019;61.746;16.106;2022-09-28T00:05:13;1.13;;;0.85;;
67100;SDS011;54019;61.746;16.106;2022-09-28T00:07:39;1.90;;;0.90;;
67100;SDS011;54019;61.746;16.106;2022-09-28T00:10:05;1.08;;;1.00;;
67100;SDS011;54019;61.746;16.106;2022-09-28T00:12:32;1.17;;;0.80;;
67100;SDS011;54019;61.746;16.106;2022-09-28T00:14:58;0.95;;;0.80;;
67100;SDS011;54019;61.746;16.106;2022-09-28T00:17:24;1.58;;;0.90;;
67100;SDS011;54019;61.746;16.106;2022-09-28T00:19:50;0.70;;;0.70;;
67100;SDS011;54019;61.746;16.106;2022-09-28T00:22:16;0.88;;;0.80;;
67100;SDS011;54019;61.746;16.106;2022-09-28T00:24:42;0.80;;;0.80;;
67100;SDS011;54019;61.746;16.106;2022-09-28T00:27:08;1.35;;;0.80;;
67100;SDS011;54019;61.746;16.106;2022-09-28T00:29:35;2.05;;;0.77;;
67100;SDS011;54019;61.746;16.106;2022-09-28T00:32:03;1.55;;;0.93;;
67100;SDS011;54019;61.746;16.106;2022-09-28T00:34:31;1.15;;;0.90;;
67100;SDS011;54019;61.746;16.106;2022-09-28T00:36:59;1.08;;;0.80;;
67100;SDS011;54019;61.746;16.106;2022-09-28T00:39:26;1.20;;;0.80;;
67100;SDS011;54019;61.746;16.106;2022-09-28T00:41:52;0.90;;;0.90;;
67100;SDS011;54019;61.746;16.106;2022-09-28T00:44:37;0.65;;;0.65;;
67100;SDS011;54019;61.746;16.106;2022-09-28T00:47:13;1.10;;;0.70;;
67100;SDS011;54019;61.746;16.106;2022-09-28T00:50:01;2.25;;;1.00;;
67100;SDS011;54019;61.746;16.106;2022-09-28T00:52:31;0.80;;;0.80;;
67100;SDS011;54019;61.746;16.106;2022-09-28T00:55:02;0.98;;;0.68;;
67100;SDS011;54019;61.746;16.106;2022-09-28T00:57:31;0.90;;;0.90;;
67100;SDS011;54019;61.746;16.106;2022-09-28T00:59:59;0.73;;;0.73;;
67100;SDS011;54019;61.746;16.106;2022-09-28T01:02:26;0.70;;;0.70;;
67100;SDS011;54019;61.746;16.106;2022-09-28T01:04:52;0.60;;;0.60;;
67100;SDS011;54019;61.746;16.106;2022-09-28T01:07:19;0.70;;;0.70;;
67100;SDS011;54019;61.746;16.106;2022-09-28T01:09:47;0.75;;;0.60;;
67100;SDS011;54019;61.746;16.106;2022-09-28T01:12:13;0.70;;;0.70;;
67100;SDS011;54019;61.746;16.106;2022-09-28T01:14:39;0.63;;;0.63;;
67100;SDS011;54019;61.746;16.106;2022-09-28T01:17:10;0.65;;;0.60;;
67100;SDS011;54019;61.746;16.106;2022-09-28T01:26:22;0.73;;;0.70;;
67100;SDS011;54019;61.746;16.106;2022-09-28T01:32:11;0.60;;;0.60;;
67100;SDS011;54019;61.746;16.106;2022-09-28T01:34:52;0.63;;;0.63;;
67100;SDS011;54019;61.746;16.106;2022-09-28T01:37:24;0.60;;;0.60;;
67100;SDS011;54019;61.746;16.106;2022-09-28T01:39:54;0.60;;;0.60;;
67100;SDS011;54019;61.746;16.106;2022-09-28T01:42:24;1.38;;;0.60;;
67100;SDS011;54019;61.746;16.106;2022-09-28T01:44:54;0.50;;;0.50;;
67100;SDS011;54019;61.746;16.106;2022-09-28T01:47:24;0.98;;;0.70;;
67100;SDS011;54019;61.746;16.106;2022-09-28T01:49:53;0.82;;;0.60;;
67100;SDS011;54019;61.746;16.106;2022-09-28T01:52:25;0.70;;;0.60;;
67100;SDS011;54019;61.746;16.106;2022-09-28T01:54:55;0.40;;;0.40;;
67100;SDS011;54019;61.746;16.106;2022-09-28T01:57:28;1.00;;;0.52;;
67100;SDS011;54019;61.746;16.106;2022-09-28T02:00:00;1.98;;;0.60;;
67100;SDS011;54019;61.746;16.106;2022-09-28T02:02:30;0.95;;;0.70;;
67100;SDS011;54019;61.746;16.106;2022-09-28T02:05:00;0.60;;;0.60;;
67100;SDS011;54019;61.746;16.106;2022-09-28T02:07:33;2.15;;;0.70;;
67100;SDS011;54019;61.746;16.106;2022-09-28T02:10:03;0.60;;;0.60;;
67100;SDS011;54019;61.746;16.106;2022-09-28T02:12:34;0.68;;;0.60;;
67100;SDS011;54019;61.746;16.106;2022-09-28T02:15:05;0.50;;;0.50;;
67100;SDS011;54019;61.746;16.106;2022-09-28T02:17:39;0.50;;;0.50;;
67100;SDS011;54019;61.746;16.106;2022-09-28T02:20:05;1.27;;;0.70;;
67100;SDS011;54019;61.746;16.106;2022-09-28T02:22:32;2.63;;;0.65;;
67100;SDS011;54019;61.746;16.106;2022-09-28T02:25:05;0.60;;;0.60;;
67100;SDS011;54019;61.746;16.106;2022-09-28T02:27:36;1.30;;;0.68;;
67100;SDS011;54019;61.746;16.106;2022-09-28T02:30:07;0.50;;;0.50;;
67100;SDS011;54019;61.746;16.106;2022-09-28T02:32:34;2.15;;;0.50;;
67100;SDS011;54019;61.746;16.106;2022-09-28T02:35:03;0.95;;;0.70;;
67100;SDS011;54019;61.746;16.106;2022-09-28T02:37:30;1.20;;;0.55;;
67100;SDS011;54019;61.746;16.106;2022-09-28T02:39:56;0.50;;;0.50;;
67100;SDS011;54019;61.746;16.106;2022-09-28T02:42:22;0.50;;;0.50;;
67100;SDS011;54019;61.746;16.106;2022-09-28T02:44:59;0.68;;;0.50;;
67100;SDS011;54019;61.746;16.106;2022-09-28T02:47:47;0.70;;;0.60;;
67100;SDS011;54019;61.746;16.106;2022-09-28T02:50:22;0.60;;;0.60;;
67100;SDS011;54019;61.746;16.106;2022-09-28T02:53:03;2.08;;;0.60;;
67100;SDS011;54019;61.746;16.106;2022-09-28T02:55:47;0.68;;;0.68;;
67100;SDS011;54019;61.746;16.106;2022-09-28T02:58:29;0.77;;;0.77;;
67100;SDS011;54019;61.746;16.106;2022-09-28T03:01:06;0.43;;;0.43;;
67100;SDS011;54019;61.746;16.106;2022-09-28T03:03:44;0.85;;;0.50;;
67100;SDS011;54019;61.746;16.106;2022-09-28T03:06:14;2.72;;;0.50;;
67100;SDS011;54019;61.746;16.106;2022-09-28T03:08:47;0.57;;;0.57;;
67100;SDS011;54019;61.746;16.106;2022-09-28T03:11:18;1.60;;;0.52;;
67100;SDS011;54019;61.746;16.106;2022-09-28T03:13:47;0.80;;;0.60;;
67100;SDS011;54019;61.746;16.106;2022-09-28T03:16:16;0.57;;;0.50;;
67100;SDS011;54019;61.746;16.106;2022-09-28T03:18:43;0.95;;;0.60;;
67100;SDS011;54019;61.746;16.106;2022-09-28T03:21:10;0.43;;;0.43;;
67100;SDS011;54019;61.746;16.106;2022-09-28T03:23:36;0.52;;;0.52;;
67100;SDS011;54019;61.746;16.106;2022-09-28T03:26:03;0.50;;;0.50;;
67100;SDS011;54019;61.746;16.106;2022-09-28T03:28:29;0.65;;;0.55;;
67100;SDS011;54019;61.746;16.106;2022-09-28T03:30:54;0.40;;;0.40;;
67100;SDS011;54019;61.746;16.106;2022-09-28T03:33:22;0.60;;;0.60;;
67100;SDS011;54019;61.746;16.106;2022-09-28T03:35:48;1.02;;;0.68;;
67100;SDS011;54019;61.746;16.106;2022-09-28T03:38:14;0.70;;;0.60;;
67100;SDS011;54019;61.746;16.106;2022-09-28T03:40:41;0.75;;;0.60;;
67100;SDS011;54019;61.746;16.106;2022-09-28T03:43:06;3.13;;;0.60;;
67100;SDS011;54019;61.746;16.106;2022-09-28T03:45:32;0.57;;;0.52;;
67100;SDS011;54019;61.746;16.106;2022-09-28T03:47:58;2.90;;;0.47;;
67100;SDS011;54019;61.746;16.106;2022-09-28T03:50:25;0.45;;;0.45;;
67100;SDS011;54019;61.746;16.106;2022-09-28T03:52:51;0.90;;;0.50;;
67100;SDS011;54019;61.746;16.106;2022-09-28T03:55:17;0.80;;;0.50;;
67100;SDS011;54019;61.746;16.106;2022-09-28T03:57:43;0.50;;;0.50;;
67100;SDS011;54019;61.746;16.106;2022-09-28T04:00:09;1.02;;;0.50;;
67100;SDS011;54019;61.746;16.106;2022-09-28T04:02:36;0.73;;;0.60;;
67100;SDS011;54019;61.746;16.106;2022-09-28T04:05:01;0.65;;;0.50;;
67100;SDS011;54019;61.746;16.106;2022-09-28T04:07:29;0.57;;;0.50;;
67100;SDS011;54019;61.746;16.106;2022-09-28T04:09:54;0.52;;;0.45;;
67100;SDS011;54019;61.746;16.106;2022-09-28T04:12:20;0.40;;;0.40;;
67100;SDS011;54019;61.746;16.106;2022-09-28T04:14:46;0.40;;;0.40;;
67100;SDS011;54019;61.746;16.106;2022-09-28T04:17:12;0.50;;;0.50;;
67100;SDS011;54019;61.746;16.106;2022-09-28T04:19:38;0.85;;;0.43;;
67100;SDS011;54019;61.746;16.106;2022-09-28T04:22:03;1.70;;;0.50;;
67100;SDS011;54019;61.746;16.106;2022-09-28T04:24:31;2.22;;;0.40;;
67100;SDS011;54019;61.746;16.106;2022-09-28T04:26:57;0.70;;;0.70;;
67100;SDS011;54019;61.746;16.106;2022-09-28T04:29:22;3.25;;;0.80;;
67100;SDS011;54019;61.746;16.106;2022-09-28T04:31:49;3.03;;;0.60;;
67100;SDS011;54019;61.746;16.106;2022-09-28T04:34:17;0.70;;;0.60;;
67100;SDS011;54019;61.746;16.106;2022-09-28T04:36:44;2.17;;;0.50;;
67100;SDS011;54019;61.746;16.106;2022-09-28T04:39:10;3.33;;;0.63;;
67100;SDS011;54019;61.746;16.106;2022-09-28T04:41:39;0.80;;;0.50;;
67100;SDS011;54019;61.746;16.106;2022-09-28T04:44:07;0.70;;;0.50;;
67100;SDS011;54019;61.746;16.106;2022-09-28T04:46:33;0.52;;;0.50;;
67100;SDS011;54019;61.746;16.106;2022-09-28T04:48:59;2.13;;;0.50;;
67100;SDS011;54019;61.746;16.106;2022-09-28T04:51:26;0.60;;;0.50;;
67100;SDS011;54019;61.746;16.106;2022-09-28T04:53:55;1.25;;;0.60;;
67100;SDS011;54019;61.746;16.106;2022-09-28T04:56:20;0.50;;;0.50;;
67100;SDS011;54019;61.746;16.106;2022-09-28T04:58:48;0.80;;;0.57;;
67100;SDS011;54019;61.746;16.106;2022-09-28T05:01:14;0.98;;;0.50;;
67100;SDS011;54019;61.746;16.106;2022-09-28T05:03:42;0.90;;;0.63;;
67100;SDS011;54019;61.746;16.106;2022-09-28T05:06:08;2.22;;;0.50;;
67100;SDS011;54019;61.746;16.106;2022-09-28T05:08:36;1.83;;;0.60;;
67100;SDS011;54019;61.746;16.106;2022-09-28T05:11:03;2.30;;;0.80;;
67100;SDS011;54019;61.746;16.106;2022-09-28T05:13:30;6.70;;;0.70;;
67100;SDS011;54019;61.746;16.106;2022-09-28T05:15:58;3.33;;;0.60;;
67100;SDS011;54019;61.746;16.106;2022-09-28T05:18:24;2.88;;;0.73;;
67100;SDS011;54019;61.746;16.106;2022-09-28T05:20:50;2.33;;;0.82;;
67100;SDS011;54019;61.746;16.106;2022-09-28T05:23:16;1.23;;;0.50;;
67100;SDS011;54019;61.746;16.106;2022-09-28T05:25:42;2.05;;;0.80;;
67100;SDS011;54019;61.746;16.106;2022-09-28T05:28:08;2.42;;;0.50;;
67100;SDS011;54019;61.746;16.106;2022-09-28T05:30:34;3.83;;;0.68;;
67100;SDS011;54019;61.746;16.106;2022-09-28T05:33:02;5.97;;;1.23;;
67100;SDS011;54019;61.746;16.106;2022-09-28T05:35:29;0.50;;;0.50;;
67100;SDS011;54019;61.746;16.106;2022-09-28T05:37:55;2.15;;;0.68;;
67100;SDS011;54019;61.746;16.106;2022-09-28T05:40:21;1.83;;;0.70;;
67100;SDS011;54019;61.746;16.106;2022-09-28T05:42:47;1.17;;;0.70;;
67100;SDS011;54019;61.746;16.106;2022-09-28T05:45:13;1.35;;;0.70;;
67100;SDS011;54019;61.746;16.106;2022-09-28T05:47:40;3.63;;;0.60;;
67100;SDS011;54019;61.746;16.106;2022-09-28T05:50:09;0.60;;;0.60;;
67100;SDS011;54019;61.746;16.106;2022-09-28T05:52:36;2.28;;;0.47;;
67100;SDS011;54019;61.746;16.106;2022-09-28T05:55:01;1.10;;;0.40;;
67100;SDS011;54019;61.746;16.106;2022-09-28T05:57:29;1.23;;;0.47;;
67100;SDS011;54019;61.746;16.106;2022-09-28T05:59:54;0.68;;;0.43;;
67100;SDS011;54019;61.746;16.106;2022-09-28T06:02:20;0.57;;;0.50;;
67100;SDS011;54019;61.746;16.106;2022-09-28T06:04:46;0.60;;;0.60;;
67100;SDS011;54019;61.746;16.106;2022-09-28T06:07:13;1.17;;;0.57;;
67100;SDS011;54019;61.746;16.106;2022-09-28T06:09:39;0.63;;;0.57;;
67100;SDS011;54019;61.746;16.106;2022-09-28T06:12:05;0.70;;;0.60;;
67100;SDS011;54019;61.746;16.106;2022-09-28T06:14:31;0.85;;;0.50;;
67100;SDS011;54019;61.746;16.106;2022-09-28T06:16:57;0.52;;;0.50;;
67100;SDS011;54019;61.746;16.106;2022-09-28T06:19:23;1.33;;;0.50;;
67100;SDS011;54019;61.746;16.106;2022-09-28T06:21:48;1.17;;;0.43;;
67100;SDS011;54019;61.746;16.106;2022-09-28T06:24:16;0.68;;;0.50;;
67100;SDS011;54019;61.746;16.106;2022-09-28T06:26:41;0.70;;;0.55;;
67100;SDS011;54019;61.746;16.106;2022-09-28T06:29:07;2.33;;;0.52;;
67100;SDS011;54019;61.746;16.106;2022-09-28T06:31:33;0.40;;;0.40;;
67100;SDS011;54019;61.746;16.106;2022-09-28T06:33:59;0.43;;;0.40;;
67100;SDS011;54019;61.746;16.106;2022-09-28T06:36:26;1.05;;;0.40;;
67100;SDS011;54019;61.746;16.106;2022-09-28T06:38:52;1.70;;;0.52;;
67100;SDS011;54019;61.746;16.106;2022-09-28T06:41:20;0.47;;;0.47;;
67100;SDS011;54019;61.746;16.106;2022-09-28T06:43:46;1.00;;;0.60;;
67100;SDS011;54019;61.746;16.106;2022-09-28T06:46:12;0.93;;;0.50;;
67100;SDS011;54019;61.746;16.106;2022-09-28T06:48:38;2.08;;;0.50;;
67100;SDS011;54019;61.746;16.106;2022-09-28T06:51:04;0.60;;;0.40;;
67100;SDS011;54019;61.746;16.106;2022-09-28T06:53:30;0.85;;;0.50;;
67100;SDS011;54019;61.746;16.106;2022-09-28T06:55:57;2.50;;;0.50;;
67100;SDS011;54019;61.746;16.106;2022-09-28T06:58:25;6.63;;;0.65;;
67100;SDS011;54019;61.746;16.106;2022-09-28T07:00:51;1.20;;;0.43;;
67100;SDS011;54019;61.746;16.106;2022-09-28T07:03:17;0.90;;;0.60;;
67100;SDS011;54019;61.746;16.106;2022-09-28T07:05:45;1.02;;;0.73;;
67100;SDS011;54019;61.746;16.106;2022-09-28T07:08:13;1.70;;;0.50;;
67100;SDS011;54019;61.746;16.106;2022-09-28T07:10:40;3.47;;;0.60;;
67100;SDS011;54019;61.746;16.106;2022-09-28T07:13:07;1.08;;;0.60;;
67100;SDS011;54019;61.746;16.106;2022-09-28T07:15:34;1.80;;;0.50;;
67100;SDS011;54019;61.746;16.106;2022-09-28T07:18:00;2.67;;;0.60;;
67100;SDS011;54019;61.746;16.106;2022-09-28T07:20:27;2.08;;;0.52;;
67100;SDS011;54019;61.746;16.106;2022-09-28T07:22:53;0.40;;;0.40;;
67100;SDS011;54019;61.746;16.106;2022-09-28T07:25:19;0.90;;;0.52;;
67100;SDS011;54019;61.746;16.106;2022-09-28T07:27:46;3.10;;;0.82;;
67100;SDS011;54019;61.746;16.106;2022-09-28T07:30:12;0.70;;;0.50;;
67100;SDS011;54019;61.746;16.106;2022-09-28T07:32:39;0.45;;;0.45;;
67100;SDS011;54019;61.746;16.106;2022-09-28T07:35:05;0.45;;;0.45;;
67100;SDS011;54019;61.746;16.106;2022-09-28T07:37:32;0.90;;;0.40;;
67100;SDS011;54019;61.746;16.106;2022-09-28T07:39:58;0.70;;;0.50;;
67100;SDS011;54019;61.746;16.106;2022-09-28T07:42:24;1.40;;;0.35;;
67100;SDS011;54019;61.746;16.106;2022-09-28T07:44:50;0.35;;;0.35;;
67100;SDS011;54019;61.746;16.106;2022-09-28T07:47:16;1.38;;;0.40;;
67100;SDS011;54019;61.746;16.106;2022-09-28T07:49:43;0.50;;;0.43;;
67100;SDS011;54019;61.746;16.106;2022-09-28T07:52:09;0.75;;;0.38;;
67100;SDS011;54019;61.746;16.106;2022-09-28T07:54:34;1.80;;;0.50;;
67100;SDS011;54019;61.746;16.106;2022-09-28T07:57:00;0.82;;;0.40;;
67100;SDS011;54019;61.746;16.106;2022-09-28T07:59:26;0.65;;;0.40;;
67100;SDS011;54019;61.746;16.106;2022-09-28T08:01:52;0.60;;;0.60;;
67100;SDS011;54019;61.746;16.106;2022-09-28T08:04:18;0.57;;;0.50;;
67100;SDS011;54019;61.746;16.106;2022-09-28T08:06:45;0.50;;;0.40;;
67100;SDS011;54019;61.746;16.106;2022-09-28T08:09:11;0.40;;;0.40;;
67100;SDS011;54019;61.746;16.106;2022-09-28T08:11:36;0.40;;;0.40;;
67100;SDS011;54019;61.746;16.106;2022-09-28T08:14:02;3.22;;;0.50;;
67100;SDS011;54019;61.746;16.106;2022-09-28T08:16:28;0.40;;;0.40;;
67100;SDS011;54019;61.746;16.106;2022-09-28T08:18:54;0.50;;;0.50;;
67100;SDS011;54019;61.746;16.106;2022-09-28T08:21:20;0.73;;;0.40;;
67100;SDS011;54019;61.746;16.106;2022-09-28T08:23:49;0.57;;;0.40;;
67100;SDS011;54019;61.746;16.106;2022-09-28T08:26:17;0.50;;;0.50;;
67100;SDS011;54019;61.746;16.106;2022-09-28T08:28:43;0.38;;;0.38;;
67100;SDS011;54019;61.746;16.106;2022-09-28T08:31:09;0.40;;;0.40;;
67100;SDS011;54019;61.746;16.106;2022-09-28T08:33:35;0.70;;;0.30;;
67100;SDS011;54019;61.746;16.106;2022-09-28T08:36:01;0.50;;;0.40;;
67100;SDS011;54019;61.746;16.106;2022-09-28T08:38:28;0.40;;;0.40;;
67100;SDS011;54019;61.746;16.106;2022-09-28T08:41:00;0.30;;;0.30;;
67100;SDS011;54019;61.746;16.106;2022-09-28T08:43:36;0.40;;;0.38;;
67100;SDS011;54019;61.746;16.106;2022-09-28T08:46:09;1.45;;;0.43;;
67100;SDS011;54019;61.746;16.106;2022-09-28T08:48:44;0.40;;;0.40;;
67100;SDS011;54019;61.746;16.106;2022-09-28T08:51:16;0.77;;;0.50;;
67100;SDS011;54019;61.746;16.106;2022-09-28T08:53:45;0.63;;;0.52;;
67100;SDS011;54019;61.746;16.106;2022-09-28T08:56:21;0.35;;;0.35;;
67100;SDS011;54019;61.746;16.106;2022-09-28T08:58:55;0.40;;;0.40;;
67100;SDS011;54019;61.746;16.106;2022-09-28T09:01:25;0.30;;;0.30;;
67100;SDS011;54019;61.746;16.106;2022-09-28T09:03:56;1.63;;;0.40;;
67100;SDS011;54019;61.746;16.106;2022-09-28T09:06:23;0.30;;;0.30;;
67100;SDS011;54019;61.746;16.106;2022-09-28T09:08:57;0.57;;;0.40;;
67100;SDS011;54019;61.746;16.106;2022-09-28T09:11:31;1.05;;;0.50;;
67100;SDS011;54019;61.746;16.106;2022-09-28T09:14:14;0.35;;;0.35;;
67100;SDS011;54019;61.746;16.106;2022-09-28T09:17:00;1.20;;;0.60;;
67100;SDS011;54019;61.746;16.106;2022-09-28T09:19:33;0.50;;;0.47;;
67100;SDS011;54019;61.746;16.106;2022-09-28T09:22:06;0.55;;;0.43;;
67100;SDS011;54019;61.746;16.106;2022-09-28T09:24:40;0.68;;;0.43;;
67100;SDS011;54019;61.746;16.106;2022-09-28T09:27:17;0.70;;;0.50;;
67100;SDS011;54019;61.746;16.106;2022-09-28T09:29:59;0.35;;;0.35;;
67100;SDS011;54019;61.746;16.106;2022-09-28T09:32:42;1.45;;;0.50;;
67100;SDS011;54019;61.746;16.106;2022-09-28T09:35:26;0.57;;;0.40;;
67100;SDS011;54019;61.746;16.106;2022-09-28T09:38:17;0.47;;;0.38;;
67100;SDS011;54019;61.746;16.106;2022-09-28T09:41:04;0.40;;;0.40;;
67100;SDS011;54019;61.746;16.106;2022-09-28T09:43:51;0.40;;;0.30;;
67100;SDS011;54019;61.746;16.106;2022-09-28T09:46:32;0.50;;;0.40;;
67100;SDS011;54019;61.746;16.106;2022-09-28T09:49:03;0.32;;;0.30;;
67100;SDS011;54019;61.746;16.106;2022-09-28T09:51:36;0.38;;;0.38;;
67100;SDS011;54019;61.746;16.106;2022-09-28T09:54:08;0.80;;;0.52;;
67100;SDS011;54019;61.746;16.106;2022-09-28T09:56:41;0.35;;;0.30;;
67100;SDS011;54019;61.746;16.106;2022-09-28T09:59:14;0.40;;;0.40;;
67100;SDS011;54019;61.746;16.106;2022-09-28T10:01:44;0.43;;;0.32;;
67100;SDS011;54019;61.746;16.106;2022-09-28T10:04:11;0.30;;;0.30;;
67100;SDS011;54019;61.746;16.106;2022-09-28T10:06:43;0.47;;;0.47;;
67100;SDS011;54019;61.746;16.106;2022-09-28T10:09:13;0.30;;;0.30;;
67100;SDS011;54019;61.746;16.106;2022-09-28T10:11:45;1.27;;;0.40;;
67100;SDS011;54019;61.746;16.106;2022-09-28T10:14:11;0.30;;;0.30;;
67100;SDS011;54019;61.746;16.106;2022-09-28T10:16:41;0.68;;;0.35;;
67100;SDS011;54019;61.746;16.106;2022-09-28T10:19:08;2.55;;;1.10;;
67100;SDS011;54019;61.746;16.106;2022-09-28T10:21:35;2.95;;;0.93;;
67100;SDS011;54019;61.746;16.106;2022-09-28T10:24:03;0.57;;;0.40;;
67100;SDS011;54019;61.746;16.106;2022-09-28T10:26:31;3.15;;;0.50;;
67100;SDS011;54019;61.746;16.106;2022-09-28T10:29:00;3.83;;;0.80;;
67100;SDS011;54019;61.746;16.106;2022-09-28T10:31:38;0.73;;;0.47;;
67100;SDS011;54019;61.746;16.106;2022-09-28T10:34:05;1.42;;;0.50;;
67100;SDS011;54019;61.746;16.106;2022-09-28T10:36:32;1.38;;;0.57;;
67100;SDS011;54019;61.746;16.106;2022-09-28T10:39:19;0.50;;;0.50;;
67100;SDS011;54019;61.746;16.106;2022-09-28T10:41:49;4.88;;;0.75;;
67100;SDS011;54019;61.746;16.106;2022-09-28T10:44:16;1.58;;;0.45;;
67100;SDS011;54019;61.746;16.106;2022-09-28T10:46:45;4.43;;;0.50;;
67100;SDS011;54019;61.746;16.106;2022-09-28T10:49:20;0.40;;;0.30;;
67100;SDS011;54019;61.746;16.106;2022-09-28T10:51:50;2.13;;;0.40;;
67100;SDS011;54019;61.746;16.106;2022-09-28T10:54:17;0.50;;;0.50;;
67100;SDS011;54019;61.746;16.106;2022-09-28T10:56:45;0.57;;;0.38;;
67100;SDS011;54019;61.746;16.106;2022-09-28T10:59:21;0.85;;;0.40;;
67100;SDS011;54019;61.746;16.106;2022-09-28T11:01:56;0.50;;;0.40;;
67100;SDS011;54019;61.746;16.106;2022-09-28T11:04:25;0.90;;;0.47;;
67100;SDS011;54019;61.746;16.106;2022-09-28T11:06:52;1.92;;;0.55;;
67100;SDS011;54019;61.746;16.106;2022-09-28T11:09:24;0.65;;;0.40;;
67100;SDS011;54019;61.746;16.106;2022-09-28T11:11:52;0.63;;;0.50;;
67100;SDS011;54019;61.746;16.106;2022-09-28T11:14:22;0.73;;;0.40;;
67100;SDS011;54019;61.746;16.106;2022-09-28T11:19:40;0.85;;;0.30;;
67100;SDS011;54019;61.746;16.106;2022-09-28T11:22:18;0.30;;;0.30;;
67100;SDS011;54019;61.746;16.106;2022-09-28T11:24:45;0.30;;;0.30;;
67100;SDS011;54019;61.746;16.106;2022-09-28T11:27:17;0.63;;;0.40;;
67100;SDS011;54019;61.746;16.106;2022-09-28T11:29:50;0.70;;;0.28;;
67100;SDS011;54019;61.746;16.106;2022-09-28T11:32:20;1.95;;;0.40;;
67100;SDS011;54019;61.746;16.106;2022-09-28T11:34:47;3.13;;;0.43;;
67100;SDS011;54019;61.746;16.106;2022-09-28T11:37:24;0.80;;;0.30;;
67100;SDS011;54019;61.746;16.106;2022-09-28T11:40:22;0.73;;;0.40;;
67100;SDS011;54019;61.746;16.106;2022-09-28T11:42:57;2.75;;;0.40;;
67100;SDS011;54019;61.746;16.106;2022-09-28T11:45:35;0.28;;;0.28;;
67100;SDS011;54019;61.746;16.106;2022-09-28T11:48:12;0.30;;;0.30;;
67100;SDS011;54019;61.746;16.106;2022-09-28T11:50:41;0.47;;;0.30;;
67100;SDS011;54019;61.746;16.106;2022-09-28T11:53:12;1.67;;;0.40;;
67100;SDS011;54019;61.746;16.106;2022-09-28T11:55:44;0.52;;;0.30;;
67100;SDS011;54019;61.746;16.106;2022-09-28T11:58:16;0.28;;;0.20;;
67100;SDS011;54019;61.746;16.106;2022-09-28T12:00:49;0.50;;;0.40;;
67100;SDS011;54019;61.746;16.106;2022-09-28T12:03:20;0.52;;;0.30;;
67100;SDS011;54019;61.746;16.106;2022-09-28T12:05:50;0.52;;;0.30;;
67100;SDS011;54019;61.746;16.106;2022-09-28T12:08:21;0.80;;;0.30;;
67100;SDS011;54019;61.746;16.106;2022-09-28T12:10:50;0.32;;;0.30;;
67100;SDS011;54019;61.746;16.106;2022-09-28T12:13:22;0.25;;;0.25;;
67100;SDS011;54019;61.746;16.106;2022-09-28T12:15:51;0.22;;;0.22;;
67100;SDS011;54019;61.746;16.106;2022-09-28T12:18:24;0.43;;;0.35;;
67100;SDS011;54019;61.746;16.106;2022-09-28T12:23:24;0.43;;;0.28;;
67100;SDS011;54019;61.746;16.106;2022-09-28T12:25:56;0.22;;;0.22;;
67100;SDS011;54019;61.746;16.106;2022-09-28T12:28:27;0.40;;;0.30;;
67100;SDS011;54019;61.746;16.106;2022-09-28T12:30:58;0.47;;;0.40;;
67100;SDS011;54019;61.746;16.106;2022-09-28T12:33:33;0.57;;;0.40;;
67100;SDS011;54019;61.746;16.106;2022-09-28T12:36:04;0.73;;;0.30;;
67100;SDS011;54019;61.746;16.106;2022-09-28T12:38:42;0.45;;;0.40;;
67100;SDS011;54019;61.746;16.106;2022-09-28T12:41:22;0.68;;;0.40;;
67100;SDS011;54019;61.746;16.106;2022-09-28T12:44:02;0.75;;;0.50;;
67100;SDS011;54019;61.746;16.106;2022-09-28T12:46:53;2.05;;;0.57;;
67100;SDS011;54019;61.746;16.106;2022-09-28T12:49:40;0.40;;;0.40;;
67100;SDS011;54019;61.746;16.106;2022-09-28T12:52:32;1.60;;;0.43;;
67100;SDS011;54019;61.746;16.106;2022-09-28T12:57:55;0.70;;;0.50;;
67100;SDS011;54019;61.746;16.106;2022-09-28T13:00:24;0.95;;;0.40;;
67100;SDS011;54019;61.746;16.106;2022-09-28T13:06:25;0.70;;;0.32;;
67100;SDS011;54019;61.746;16.106;2022-09-28T13:09:15;1.00;;;0.40;;
67100;SDS011;54019;61.746;16.106;2022-09-28T13:11:54;0.85;;;0.40;;
67100;SDS011;54019;61.746;16.106;2022-09-28T13:17:33;0.70;;;0.40;;
67100;SDS011;54019;61.746;16.106;2022-09-28T13:20:10;0.63;;;0.38;;
67100;SDS011;54019;61.746;16.106;2022-09-28T13:22:56;0.77;;;0.60;;
67100;SDS011;54019;61.746;16.106;2022-09-28T13:25:35;1.08;;;0.40;;
67100;SDS011;54019;61.746;16.106;2022-09-28T13:28:08;1.30;;;0.50;;
67100;SDS011;54019;61.746;16.106;2022-09-28T13:30:38;1.75;;;0.40;;
67100;SDS011;54019;61.746;16.106;2022-09-28T13:33:05;1.55;;;0.40;;
67100;SDS011;54019;61.746;16.106;2022-09-28T13:35:34;0.60;;;0.35;;
67100;SDS011;54019;61.746;16.106;2022-09-28T13:38:29;1.52;;;0.40;;
67100;SDS011;54019;61.746;16.106;2022-09-28T13:41:12;1.95;;;0.40;;
67100;SDS011;54019;61.746;16.106;2022-09-28T13:43:50;0.20;;;0.20;;
67100;SDS011;54019;61.746;16.106;2022-09-28T13:46:31;0.20;;;0.20;;
67100;SDS011;54019;61.746;16.106;2022-09-28T13:49:04;0.43;;;0.20;;
67100;SDS011;54019;61.746;16.106;2022-09-28T13:51:42;3.50;;;0.30;;
67100;SDS011;54019;61.746;16.106;2022-09-28T13:54:32;0.20;;;0.20;;
67100;SDS011;54019;61.746;16.106;2022-09-28T13:57:11;0.30;;;0.30;;
67100;SDS011;54019;61.746;16.106;2022-09-28T13:59:48;0.43;;;0.25;;
67100;SDS011;54019;61.746;16.106;2022-09-28T14:02:27;0.30;;;0.30;;
67100;SDS011;54019;61.746;16.106;2022-09-28T14:04:59;0.30;;;0.20;;
67100;SDS011;54019;61.746;16.106;2022-09-28T14:10:22;5.40;;;0.70;;
67100;SDS011;54019;61.746;16.106;2022-09-28T14:13:08;2.67;;;0.30;;
67100;SDS011;54019;61.746;16.106;2022-09-28T14:15:41;2.20;;;0.30;;
67100;SDS011;54019;61.746;16.106;2022-09-28T14:18:11;4.80;;;0.73;;
67100;SDS011;54019;61.746;16.106;2022-09-28T14:20:46;2.40;;;0.30;;
67100;SDS011;54019;61.746;16.106;2022-09-28T14:26:23;1.95;;;0.30;;
67100;SDS011;54019;61.746;16.106;2022-09-28T14:29:07;3.45;;;0.60;;
67100;SDS011;54019;61.746;16.106;2022-09-28T14:31:43;2.65;;;0.30;;
67100;SDS011;54019;61.746;16.106;2022-09-28T14:34:21;3.42;;;0.32;;
67100;SDS011;54019;61.746;16.106;2022-09-28T14:36:55;3.38;;;0.40;;
67100;SDS011;54019;61.746;16.106;2022-09-28T14:39:24;5.22;;;0.60;;
67100;SDS011;54019;61.746;16.106;2022-09-28T14:41:53;6.07;;;0.40;;
67100;SDS011;54019;61.746;16.106;2022-09-28T14:44:19;5.70;;;0.60;;
67100;SDS011;54019;61.746;16.106;2022-09-28T14:46:45;1.77;;;0.30;;
67100;SDS011;54019;61.746;16.106;2022-09-28T14:52:09;3.10;;;0.50;;
67100;SDS011;54019;61.746;16.106;2022-09-28T14:54:41;1.25;;;0.30;;
67100;SDS011;54019;61.746;16.106;2022-09-28T14:57:18;2.17;;;0.20;;
67100;SDS011;54019;61.746;16.106;2022-09-28T14:59:46;0.13;;;0.13;;
67100;SDS011;54019;61.746;16.106;2022-09-28T15:02:14;0.20;;;0.20;;
67100;SDS011;54019;61.746;16.106;2022-09-28T15:04:45;0.33;;;0.23;;
67100;SDS011;54019;61.746;16.106;2022-09-28T15:07:18;0.55;;;0.30;;
67100;SDS011;54019;61.746;16.106;2022-09-28T15:09:46;1.13;;;0.30;;
67100;SDS011;54019;61.746;16.106;2022-09-28T15:12:13;1.77;;;0.30;;
67100;SDS011;54019;61.746;16.106;2022-09-28T15:14:43;1.55;;;0.20;;
67100;SDS011;54019;61.746;16.106;2022-09-28T15:17:11;0.25;;;0.25;;
67100;SDS011;54019;61.746;16.106;2022-09-28T15:19:42;7.72;;;0.40;;
67100;SDS011;54019;61.746;16.106;2022-09-28T15:22:18;6.93;;;0.30;;
67100;SDS011;54019;61.746;16.106;2022-09-28T15:24:45;2.05;;;0.30;;